KAVX Airport Information

Runway Information
Runway 04 Length 3000 ft width 60 ft
Elevation 1602 ft Threshold 120 ft Heading 54
Runway 22 Length 3000 ft Width 60 ft
Elevation 1602 ft Threshold 149 ft Heading 234
Airport Frequencies
Type A/D Name SOCAL APP/ Frequency 127.4 MHZ
Type UNIC Name CTAF/UNICO Frequency 122.7 MHZ
Airport Navaids
Airport Weather Information & NOTAM
ADDS - METARS form results

(2155 UTC 24 May 2019)
Data provider http://aviationweather.gov/metar/data/
 
METAR text: KAVX 242151Z AUTO 26011KT 10SM CLR 15/11 A2998 RMK AO2 SLP145 T01500106 $
Conditions at: KAVX (AVALON , CA, US) observed 2151 UTC 24 May 2019
Temperature: 15.0°C (59°F)
Dewpoint: 10.6°C (51°F) [RH = 75%]
Pressure (altimeter): 29.98 inches Hg (1015.3 mb)
[Sea-level pressure: 1014.5 mb]
Winds: from the W (260 degrees) at 13 MPH (11 knots; 5.7 m/s)
Visibility: 10 or more miles (16+ km)
Ceiling: at least 12,000 feet AGL
Clouds: sky clear below 12,000 feet AGL
Weather:
SOME DATA ABOVE MAY BE INACCURATE!!!
"$" is an indication the sensor requires maintenance